sensor_id;sensor_type;location;lat;lon;timestamp;pressure;altitude;pressure_sealevel;temperature;humidity
80682;BME280;70045;40.200;44.582;2024-02-14T00:02:24;86368.88;;;7.21;45.77
80682;BME280;70045;40.200;44.582;2024-02-14T00:04:53;86375.13;;;7.23;45.39
80682;BME280;70045;40.200;44.582;2024-02-14T00:07:19;86366.66;;;7.23;45.36
80682;BME280;70045;40.200;44.582;2024-02-14T00:09:45;86368.88;;;7.24;45.15
80682;BME280;70045;40.200;44.582;2024-02-14T00:12:10;86362.53;;;7.32;44.99
80682;BME280;70045;40.200;44.582;2024-02-14T00:14:36;86355.88;;;7.35;45.04
80682;BME280;70045;40.200;44.582;2024-02-14T00:17:05;86345.59;;;7.31;45.14
80682;BME280;70045;40.200;44.582;2024-02-14T00:19:34;86363.59;;;7.39;44.80
80682;BME280;70045;40.200;44.582;2024-02-14T00:21:59;86369.81;;;7.45;44.32
80682;BME280;70045;40.200;44.582;2024-02-14T00:24:25;86372.75;;;7.47;44.33
80682;BME280;70045;40.200;44.582;2024-02-14T00:26:50;86370.84;;;7.51;44.53
80682;BME280;70045;40.200;44.582;2024-02-14T00:29:18;86366.84;;;7.50;44.40
80682;BME280;70045;40.200;44.582;2024-02-14T00:31:44;86371.63;;;7.48;44.89
80682;BME280;70045;40.200;44.582;2024-02-14T00:34:09;86374.19;;;7.48;44.43
80682;BME280;70045;40.200;44.582;2024-02-14T00:36:35;86373.81;;;7.49;44.32
80682;BME280;70045;40.200;44.582;2024-02-14T00:39:00;86367.63;;;7.43;44.72
80682;BME280;70045;40.200;44.582;2024-02-14T00:41:28;86358.41;;;7.42;45.30
80682;BME280;70045;40.200;44.582;2024-02-14T00:43:54;86359.13;;;7.43;45.03
80682;BME280;70045;40.200;44.582;2024-02-14T00:46:19;86357.69;;;7.42;45.42
80682;BME280;70045;40.200;44.582;2024-02-14T00:48:45;86352.16;;;7.40;45.20
80682;BME280;70045;40.200;44.582;2024-02-14T00:51:10;86343.66;;;7.43;45.38
80682;BME280;70045;40.200;44.582;2024-02-14T00:53:39;86359.09;;;7.46;45.37
80682;BME280;70045;40.200;44.582;2024-02-14T00:56:05;86353.56;;;7.48;45.13
80682;BME280;70045;40.200;44.582;2024-02-14T00:58:30;86357.63;;;7.49;45.23
80682;BME280;70045;40.200;44.582;2024-02-14T01:00:56;86347.69;;;7.47;45.27
80682;BME280;70045;40.200;44.582;2024-02-14T01:03:21;86352.41;;;7.52;44.59
80682;BME280;70045;40.200;44.582;2024-02-14T01:05:50;86346.50;;;7.56;44.69
80682;BME280;70045;40.200;44.582;2024-02-14T01:08:15;86349.06;;;7.59;44.38
80682;BME280;70045;40.200;44.582;2024-02-14T01:10:40;86343.50;;;7.61;44.82
80682;BME280;70045;40.200;44.582;2024-02-14T01:13:06;86344.31;;;7.54;45.12
80682;BME280;70045;40.200;44.582;2024-02-14T01:15:32;86348.00;;;7.53;44.57
80682;BME280;70045;40.200;44.582;2024-02-14T01:18:01;86341.44;;;7.45;43.47
80682;BME280;70045;40.200;44.582;2024-02-14T01:20:26;86339.63;;;7.42;43.50
80682;BME280;70045;40.200;44.582;2024-02-14T01:22:52;86331.47;;;7.47;43.41
80682;BME280;70045;40.200;44.582;2024-02-14T01:25:17;86339.09;;;7.58;43.36
80682;BME280;70045;40.200;44.582;2024-02-14T01:27:43;86330.97;;;7.63;42.95
80682;BME280;70045;40.200;44.582;2024-02-14T01:30:12;86332.06;;;7.62;42.68
80682;BME280;70045;40.200;44.582;2024-02-14T01:32:37;86340.13;;;7.67;42.87
80682;BME280;70045;40.200;44.582;2024-02-14T01:35:03;86332.00;;;7.69;42.63
80682;BME280;70045;40.200;44.582;2024-02-14T01:37:29;86329.03;;;7.70;43.80
80682;BME280;70045;40.200;44.582;2024-02-14T01:39:54;86321.31;;;7.67;43.43
80682;BME280;70045;40.200;44.582;2024-02-14T01:42:24;86332.03;;;7.65;43.90
80682;BME280;70045;40.200;44.582;2024-02-14T01:44:49;86335.16;;;7.46;44.46
80682;BME280;70045;40.200;44.582;2024-02-14T01:47:14;86325.97;;;7.45;44.45
80682;BME280;70045;40.200;44.582;2024-02-14T01:49:40;86330.41;;;7.41;44.26
80682;BME280;70045;40.200;44.582;2024-02-14T01:52:06;86325.66;;;7.35;44.51
80682;BME280;70045;40.200;44.582;2024-02-14T01:54:35;86334.13;;;7.40;44.85
80682;BME280;70045;40.200;44.582;2024-02-14T01:57:01;86332.94;;;7.44;44.78
80682;BME280;70045;40.200;44.582;2024-02-14T01:59:27;86330.00;;;7.46;44.23
80682;BME280;70045;40.200;44.582;2024-02-14T02:01:53;86327.75;;;7.48;44.69
80682;BME280;70045;40.200;44.582;2024-02-14T02:04:18;86320.41;;;7.46;44.27
80682;BME280;70045;40.200;44.582;2024-02-14T02:06:47;86319.66;;;7.49;44.64
80682;BME280;70045;40.200;44.582;2024-02-14T02:09:13;86316.72;;;7.47;44.64
80682;BME280;70045;40.200;44.582;2024-02-14T02:11:51;86327.03;;;7.47;44.42
80682;BME280;70045;40.200;44.582;2024-02-14T02:14:17;86325.59;;;7.43;45.03
80682;BME280;70045;40.200;44.582;2024-02-14T02:16:43;86326.34;;;7.43;45.07
80682;BME280;70045;40.200;44.582;2024-02-14T02:19:11;86322.66;;;7.41;45.24
80682;BME280;70045;40.200;44.582;2024-02-14T02:21:37;86322.66;;;7.41;45.61
80682;BME280;70045;40.200;44.582;2024-02-14T02:24:02;86322.69;;;7.37;45.30
80682;BME280;70045;40.200;44.582;2024-02-14T02:26:28;86321.97;;;7.37;45.20
80682;BME280;70045;40.200;44.582;2024-02-14T02:28:53;86313.47;;;7.40;45.16
80682;BME280;70045;40.200;44.582;2024-02-14T02:31:22;86313.34;;;7.54;46.31
80682;BME280;70045;40.200;44.582;2024-02-14T02:33:47;86310.00;;;7.57;44.80
80682;BME280;70045;40.200;44.582;2024-02-14T02:36:13;86308.50;;;7.60;44.40
80682;BME280;70045;40.200;44.582;2024-02-14T02:38:38;86301.47;;;7.60;44.95
80682;BME280;70045;40.200;44.582;2024-02-14T02:41:04;86302.53;;;7.66;44.65
80682;BME280;70045;40.200;44.582;2024-02-14T02:43:34;86300.22;;;7.76;44.51
80682;BME280;70045;40.200;44.582;2024-02-14T02:46:00;86306.88;;;7.77;44.50
80682;BME280;70045;40.200;44.582;2024-02-14T02:48:25;86309.03;;;7.82;44.71
80682;BME280;70045;40.200;44.582;2024-02-14T02:50:52;86314.50;;;7.87;43.94
80682;BME280;70045;40.200;44.582;2024-02-14T02:53:18;86314.44;;;7.91;44.45
80682;BME280;70045;40.200;44.582;2024-02-14T02:55:46;86318.47;;;7.96;43.57
80682;BME280;70045;40.200;44.582;2024-02-14T02:58:12;86314.75;;;8.00;43.80
80682;BME280;70045;40.200;44.582;2024-02-14T03:00:37;86304.41;;;8.00;43.80
80682;BME280;70045;40.200;44.582;2024-02-14T03:03:03;86301.88;;;7.93;44.21
80682;BME280;70045;40.200;44.582;2024-02-14T03:05:28;86314.75;;;7.97;44.25
80682;BME280;70045;40.200;44.582;2024-02-14T03:07:57;86309.63;;;7.93;44.15
80682;BME280;70045;40.200;44.582;2024-02-14T03:10:23;86309.03;;;7.82;44.74
80682;BME280;70045;40.200;44.582;2024-02-14T03:12:48;86307.59;;;7.77;44.55
80682;BME280;70045;40.200;44.582;2024-02-14T03:15:14;86299.28;;;7.62;44.51
80682;BME280;70045;40.200;44.582;2024-02-14T03:17:40;86313.97;;;7.65;44.62
80682;BME280;70045;40.200;44.582;2024-02-14T03:20:09;86315.75;;;7.72;44.63
80682;BME280;70045;40.200;44.582;2024-02-14T03:22:35;86322.84;;;7.64;44.98
80682;BME280;70045;40.200;44.582;2024-02-14T03:25:00;86315.16;;;7.57;45.05
80682;BME280;70045;40.200;44.582;2024-02-14T03:27:25;86321.78;;;7.58;44.82
80682;BME280;70045;40.200;44.582;2024-02-14T03:29:51;86324.69;;;7.60;45.08
80682;BME280;70045;40.200;44.582;2024-02-14T03:32:19;86339.06;;;7.61;44.88
80682;BME280;70045;40.200;44.582;2024-02-14T03:34:44;86315.59;;;7.52;44.63
80682;BME280;70045;40.200;44.582;2024-02-14T03:37:10;86334.94;;;7.71;44.57
80682;BME280;70045;40.200;44.582;2024-02-14T03:39:35;86337.91;;;7.69;44.53
80682;BME280;70045;40.200;44.582;2024-02-14T03:42:02;86334.97;;;7.67;44.69
80682;BME280;70045;40.200;44.582;2024-02-14T03:44:31;86331.25;;;7.68;44.90
80682;BME280;70045;40.200;44.582;2024-02-14T03:46:57;86336.44;;;7.68;45.04
80682;BME280;70045;40.200;44.582;2024-02-14T03:49:22;86343.06;;;7.69;44.47
80682;BME280;70045;40.200;44.582;2024-02-14T03:51:48;86340.47;;;7.69;44.63
80682;BME280;70045;40.200;44.582;2024-02-14T03:54:13;86349.25;;;7.76;45.15
80682;BME280;70045;40.200;44.582;2024-02-14T03:56:42;86350.78;;;7.73;45.14
80682;BME280;70045;40.200;44.582;2024-02-14T03:59:07;86355.59;;;7.71;44.97
80682;BME280;70045;40.200;44.582;2024-02-14T04:01:33;86355.97;;;7.69;44.62
80682;BME280;70045;40.200;44.582;2024-02-14T04:03:58;86367.00;;;7.70;45.42
80682;BME280;70045;40.200;44.582;2024-02-14T04:06:24;86365.16;;;7.70;45.31
80682;BME280;70045;40.200;44.582;2024-02-14T04:08:52;86365.94;;;7.67;45.40
80682;BME280;70045;40.200;44.582;2024-02-14T04:11:17;86359.22;;;7.73;45.43
80682;BME280;70045;40.200;44.582;2024-02-14T04:13:43;86362.16;;;7.76;44.95
80682;BME280;70045;40.200;44.582;2024-02-14T04:16:08;86367.94;;;7.90;45.25
80682;BME280;70045;40.200;44.582;2024-02-14T04:18:34;86374.88;;;7.97;45.09
80682;BME280;70045;40.200;44.582;2024-02-14T04:21:02;86368.66;;;7.91;45.77
80682;BME280;70045;40.200;44.582;2024-02-14T04:23:28;86373.50;;;7.85;45.20
80682;BME280;70045;40.200;44.582;2024-02-14T04:25:53;86376.84;;;7.82;45.70
80682;BME280;70045;40.200;44.582;2024-02-14T04:28:18;86387.13;;;7.86;45.71
80682;BME280;70045;40.200;44.582;2024-02-14T04:30:44;86380.50;;;7.88;45.02
80682;BME280;70045;40.200;44.582;2024-02-14T04:33:12;86383.84;;;7.85;45.60
80682;BME280;70045;40.200;44.582;2024-02-14T04:35:37;86379.75;;;7.88;46.11
80682;BME280;70045;40.200;44.582;2024-02-14T04:38:03;86374.47;;;8.02;45.36
80682;BME280;70045;40.200;44.582;2024-02-14T04:40:28;86378.16;;;8.01;45.25
80682;BME280;70045;40.200;44.582;2024-02-14T04:42:54;86377.47;;;7.97;45.95
80682;BME280;70045;40.200;44.582;2024-02-14T04:45:22;86377.88;;;7.92;46.32
80682;BME280;70045;40.200;44.582;2024-02-14T04:47:47;86377.47;;;7.97;45.92
80682;BME280;70045;40.200;44.582;2024-02-14T04:50:13;86389.47;;;8.15;45.13
80682;BME280;70045;40.200;44.582;2024-02-14T04:52:38;86389.00;;;8.23;44.75
80682;BME280;70045;40.200;44.582;2024-02-14T04:55:04;86387.41;;;8.33;44.44
80682;BME280;70045;40.200;44.582;2024-02-14T04:57:32;86388.00;;;8.48;43.93
80682;BME280;70045;40.200;44.582;2024-02-14T04:59:57;86390.03;;;8.64;44.18
80682;BME280;70045;40.200;44.582;2024-02-14T05:02:23;86388.16;;;8.68;44.74
80682;BME280;70045;40.200;44.582;2024-02-14T05:04:48;86392.19;;;8.69;44.14
80682;BME280;70045;40.200;44.582;2024-02-14T05:07:14;86396.25;;;8.70;44.44
80682;BME280;70045;40.200;44.582;2024-02-14T05:09:43;86392.00;;;8.83;43.83
80682;BME280;70045;40.200;44.582;2024-02-14T05:12:08;86394.44;;;8.98;43.99
80682;BME280;70045;40.200;44.582;2024-02-14T05:14:37;86388.78;;;9.07;43.44
80682;BME280;70045;40.200;44.582;2024-02-14T05:17:03;86396.44;;;9.14;43.40
80682;BME280;70045;40.200;44.582;2024-02-14T05:19:28;86400.09;;;9.16;43.60
80682;BME280;70045;40.200;44.582;2024-02-14T05:21:57;86389.66;;;9.23;43.15
80682;BME280;70045;40.200;44.582;2024-02-14T05:24:22;86386.16;;;9.34;42.18
80682;BME280;70045;40.200;44.582;2024-02-14T05:26:47;86382.38;;;9.42;43.32
80682;BME280;70045;40.200;44.582;2024-02-14T05:29:13;86384.06;;;9.52;42.59
80682;BME280;70045;40.200;44.582;2024-02-14T05:31:45;86381.25;;;9.67;42.89
80682;BME280;70045;40.200;44.582;2024-02-14T05:34:15;86382.22;;;9.76;42.13
80682;BME280;70045;40.200;44.582;2024-02-14T05:36:40;86372.53;;;9.80;43.22
80682;BME280;70045;40.200;44.582;2024-02-14T05:39:06;86374.38;;;9.80;42.72
80682;BME280;70045;40.200;44.582;2024-02-14T05:41:31;86371.94;;;9.93;43.41
80682;BME280;70045;40.200;44.582;2024-02-14T05:43:57;86365.81;;;10.07;42.54
80682;BME280;70045;40.200;44.582;2024-02-14T05:46:26;86356.59;;;10.26;42.41
80682;BME280;70045;40.200;44.582;2024-02-14T05:48:51;86349.66;;;10.43;42.51
80682;BME280;70045;40.200;44.582;2024-02-14T05:51:16;86349.56;;;10.66;41.27
80682;BME280;70045;40.200;44.582;2024-02-14T05:53:42;86341.84;;;10.83;40.85
80682;BME280;70045;40.200;44.582;2024-02-14T05:56:07;86341.59;;;10.93;40.72
80682;BME280;70045;40.200;44.582;2024-02-14T05:58:35;86342.78;;;11.09;39.81
80682;BME280;70045;40.200;44.582;2024-02-14T06:01:01;86342.38;;;11.10;40.55
80682;BME280;70045;40.200;44.582;2024-02-14T06:03:26;86334.59;;;11.10;39.76
80682;BME280;70045;40.200;44.582;2024-02-14T06:05:52;86346.44;;;11.11;40.20
80682;BME280;70045;40.200;44.582;2024-02-14T06:08:17;86343.69;;;11.19;39.09
80682;BME280;70045;40.200;44.582;2024-02-14T06:10:46;86348.66;;;10.93;38.17
80682;BME280;70045;40.200;44.582;2024-02-14T06:13:11;86355.03;;;11.08;39.01
80682;BME280;70045;40.200;44.582;2024-02-14T06:15:37;86332.50;;;11.22;38.71
80682;BME280;70045;40.200;44.582;2024-02-14T06:18:02;86354.25;;;11.61;39.02
80682;BME280;70045;40.200;44.582;2024-02-14T06:20:28;86351.16;;;11.66;37.34
80682;BME280;70045;40.200;44.582;2024-02-14T06:22:56;86352.63;;;11.83;37.80
80682;BME280;70045;40.200;44.582;2024-02-14T06:25:22;86345.47;;;12.04;37.72
80682;BME280;70045;40.200;44.582;2024-02-14T06:27:47;86345.09;;;12.35;37.90
80682;BME280;70045;40.200;44.582;2024-02-14T06:30:13;86359.72;;;12.58;37.66
80682;BME280;70045;40.200;44.582;2024-02-14T06:32:39;86357.88;;;12.71;36.92
80682;BME280;70045;40.200;44.582;2024-02-14T06:35:07;86351.53;;;12.72;36.62
80682;BME280;70045;40.200;44.582;2024-02-14T06:37:33;86361.63;;;12.70;36.13
80682;BME280;70045;40.200;44.582;2024-02-14T06:39:58;86358.81;;;12.65;36.96
80682;BME280;70045;40.200;44.582;2024-02-14T06:42:23;86367.19;;;12.56;37.55
80682;BME280;70045;40.200;44.582;2024-02-14T06:44:49;86353.09;;;12.40;37.37
80682;BME280;70045;40.200;44.582;2024-02-14T06:47:18;86346.88;;;12.38;37.73
80682;BME280;70045;40.200;44.582;2024-02-14T06:49:43;86342.47;;;12.35;37.88
80682;BME280;70045;40.200;44.582;2024-02-14T06:52:09;86341.66;;;12.38;38.16
80682;BME280;70045;40.200;44.582;2024-02-14T06:54:34;86339.06;;;12.38;37.74
80682;BME280;70045;40.200;44.582;2024-02-14T06:57:00;86337.09;;;12.42;37.37
80682;BME280;70045;40.200;44.582;2024-02-14T06:59:29;86337.22;;;12.51;36.62
80682;BME280;70045;40.200;44.582;2024-02-14T07:01:54;86339.28;;;12.43;35.93
80682;BME280;70045;40.200;44.582;2024-02-14T07:04:23;86342.81;;;12.50;36.82
80682;BME280;70045;40.200;44.582;2024-02-14T07:06:48;86344.00;;;12.61;35.87
80682;BME280;70045;40.200;44.582;2024-02-14T07:09:14;86319.78;;;12.52;35.29
80682;BME280;70045;40.200;44.582;2024-02-14T07:11:42;86344.56;;;12.69;34.74
80682;BME280;70045;40.200;44.582;2024-02-14T07:14:07;86339.88;;;12.77;35.65
80682;BME280;70045;40.200;44.582;2024-02-14T07:16:33;86328.03;;;12.76;35.17
80682;BME280;70045;40.200;44.582;2024-02-14T07:18:58;86338.25;;;12.83;35.18
80682;BME280;70045;40.200;44.582;2024-02-14T07:21:23;86343.81;;;12.69;35.40
80682;BME280;70045;40.200;44.582;2024-02-14T07:23:52;86338.09;;;12.61;35.92
80682;BME280;70045;40.200;44.582;2024-02-14T07:26:17;86333.91;;;12.63;36.22
80682;BME280;70045;40.200;44.582;2024-02-14T07:28:43;86340.59;;;12.65;36.22
80682;BME280;70045;40.200;44.582;2024-02-14T07:31:08;86328.47;;;12.87;36.54
80682;BME280;70045;40.200;44.582;2024-02-14T07:33:40;86326.41;;;13.08;35.90
80682;BME280;70045;40.200;44.582;2024-02-14T07:36:09;86323.00;;;13.36;35.42
80682;BME280;70045;40.200;44.582;2024-02-14T07:38:34;86314.03;;;13.50;34.25
80682;BME280;70045;40.200;44.582;2024-02-14T07:40:59;86309.94;;;13.62;35.62
80682;BME280;70045;40.200;44.582;2024-02-14T07:43:25;86307.00;;;13.86;34.66
80682;BME280;70045;40.200;44.582;2024-02-14T07:45:50;86294.97;;;14.01;34.80
80682;BME280;70045;40.200;44.582;2024-02-14T07:48:19;86311.25;;;14.27;32.32
80682;BME280;70045;40.200;44.582;2024-02-14T07:50:44;86297.84;;;14.38;33.95
80682;BME280;70045;40.200;44.582;2024-02-14T07:53:13;86287.72;;;14.40;32.79
80682;BME280;70045;40.200;44.582;2024-02-14T07:55:39;86307.78;;;14.53;32.90
80682;BME280;70045;40.200;44.582;2024-02-14T07:58:04;86303.94;;;14.57;32.73
80682;BME280;70045;40.200;44.582;2024-02-14T08:00:32;86302.69;;;14.62;30.91
80682;BME280;70045;40.200;44.582;2024-02-14T08:02:58;86296.66;;;14.74;32.00
80682;BME280;70045;40.200;44.582;2024-02-14T08:05:31;86293.81;;;14.81;31.90
80682;BME280;70045;40.200;44.582;2024-02-14T08:07:57;86292.16;;;14.97;31.60
80682;BME280;70045;40.200;44.582;2024-02-14T08:10:22;86289.31;;;15.13;31.04
80682;BME280;70045;40.200;44.582;2024-02-14T08:12:52;86281.06;;;15.24;29.85
80682;BME280;70045;40.200;44.582;2024-02-14T08:15:18;86282.13;;;15.36;30.42
80682;BME280;70045;40.200;44.582;2024-02-14T08:17:43;86283.78;;;15.52;29.46
80682;BME280;70045;40.200;44.582;2024-02-14T08:20:09;86279.03;;;15.69;31.02
80682;BME280;70045;40.200;44.582;2024-02-14T08:22:34;86269.38;;;15.88;31.39
80682;BME280;70045;40.200;44.582;2024-02-14T08:25:04;86271.69;;;15.86;31.09
80682;BME280;70045;40.200;44.582;2024-02-14T08:27:30;86274.03;;;15.84;30.91
80682;BME280;70045;40.200;44.582;2024-02-14T08:29:55;86261.81;;;15.90;30.73
80682;BME280;70045;40.200;44.582;2024-02-14T08:32:21;86260.81;;;15.87;31.16
80682;BME280;70045;40.200;44.582;2024-02-14T08:34:46;86264.72;;;15.92;31.01
80682;BME280;70045;40.200;44.582;2024-02-14T08:37:16;86256.91;;;16.01;30.62
80682;BME280;70045;40.200;44.582;2024-02-14T08:39:41;86248.34;;;16.10;31.01
80682;BME280;70045;40.200;44.582;2024-02-14T08:42:07;86255.00;;;16.11;31.24
80682;BME280;70045;40.200;44.582;2024-02-14T08:44:33;86254.00;;;15.99;31.24
80682;BME280;70045;40.200;44.582;2024-02-14T08:46:58;86255.72;;;15.93;31.80
80682;BME280;70045;40.200;44.582;2024-02-14T08:49:27;86252.97;;;15.96;30.69
80682;BME280;70045;40.200;44.582;2024-02-14T08:51:53;86243.25;;;16.06;31.31
80682;BME280;70045;40.200;44.582;2024-02-14T08:54:18;86244.69;;;16.26;30.89
80682;BME280;70045;40.200;44.582;2024-02-14T08:56:44;86246.28;;;16.42;31.16
80682;BME280;70045;40.200;44.582;2024-02-14T08:59:09;86243.78;;;16.66;30.83
80682;BME280;70045;40.200;44.582;2024-02-14T09:01:37;86245.97;;;16.86;30.63
80682;BME280;70045;40.200;44.582;2024-02-14T09:04:03;86241.31;;;16.62;30.56
80682;BME280;70045;40.200;44.582;2024-02-14T09:06:28;86239.31;;;16.48;30.52
80682;BME280;70045;40.200;44.582;2024-02-14T09:08:53;86235.69;;;16.36;30.70
80682;BME280;70045;40.200;44.582;2024-02-14T09:11:19;86226.38;;;16.07;30.86
80682;BME280;70045;40.200;44.582;2024-02-14T09:13:48;86243.81;;;15.92;30.88
80682;BME280;70045;40.200;44.582;2024-02-14T09:16:14;86238.09;;;15.66;31.08
80682;BME280;70045;40.200;44.582;2024-02-14T09:18:39;86239.50;;;15.48;31.46
80682;BME280;70045;40.200;44.582;2024-02-14T09:21:05;86232.50;;;15.36;31.81
80682;BME280;70045;40.200;44.582;2024-02-14T09:23:30;86232.09;;;15.47;31.58
80682;BME280;70045;40.200;44.582;2024-02-14T09:26:00;86224.88;;;15.60;31.14
80682;BME280;70045;40.200;44.582;2024-02-14T09:28:25;86211.09;;;15.59;31.55
80682;BME280;70045;40.200;44.582;2024-02-14T09:30:51;86219.72;;;15.78;31.44
80682;BME280;70045;40.200;44.582;2024-02-14T09:33:16;86219.84;;;15.84;30.97
80682;BME280;70045;40.200;44.582;2024-02-14T09:35:42;86212.72;;;15.85;30.68
80682;BME280;70045;40.200;44.582;2024-02-14T09:38:11;86205.25;;;15.55;30.80
80682;BME280;70045;40.200;44.582;2024-02-14T09:40:37;86210.84;;;15.76;31.20
80682;BME280;70045;40.200;44.582;2024-02-14T09:43:05;86204.75;;;15.88;31.11
80682;BME280;70045;40.200;44.582;2024-02-14T09:45:33;86205.03;;;16.18;31.34
80682;BME280;70045;40.200;44.582;2024-02-14T09:47:59;86197.00;;;16.49;30.15
80682;BME280;70045;40.200;44.582;2024-02-14T09:50:29;86200.13;;;16.90;29.83
80682;BME280;70045;40.200;44.582;2024-02-14T09:52:57;86206.53;;;17.23;29.24
80682;BME280;70045;40.200;44.582;2024-02-14T09:55:23;86194.09;;;17.42;28.15
80682;BME280;70045;40.200;44.582;2024-02-14T09:57:50;86200.50;;;17.65;28.79
80682;BME280;70045;40.200;44.582;2024-02-14T10:00:16;86186.69;;;17.88;28.49
80682;BME280;70045;40.200;44.582;2024-02-14T10:02:45;86184.97;;;18.24;27.33
80682;BME280;70045;40.200;44.582;2024-02-14T10:05:11;86180.19;;;18.38;27.45
80682;BME280;70045;40.200;44.582;2024-02-14T10:07:40;86181.50;;;18.18;27.45
80682;BME280;70045;40.200;44.582;2024-02-14T10:10:07;86173.69;;;18.33;27.75
80682;BME280;70045;40.200;44.582;2024-02-14T10:12:32;86166.25;;;18.47;27.54
80682;BME280;70045;40.200;44.582;2024-02-14T10:15:00;86159.09;;;18.77;27.24
80682;BME280;70045;40.200;44.582;2024-02-14T10:17:26;86161.00;;;18.91;26.57
80682;BME280;70045;40.200;44.582;2024-02-14T10:19:58;86158.56;;;18.88;26.10
80682;BME280;70045;40.200;44.582;2024-02-14T10:22:24;86154.03;;;18.88;27.02
80682;BME280;70045;40.200;44.582;2024-02-14T10:24:50;86149.41;;;18.68;27.77
80682;BME280;70045;40.200;44.582;2024-02-14T10:27:20;86146.16;;;18.29;27.17
80682;BME280;70045;40.200;44.582;2024-02-14T10:29:46;86153.19;;;18.22;28.47
80682;BME280;70045;40.200;44.582;2024-02-14T10:32:14;86155.22;;;17.88;26.74
80682;BME280;70045;40.200;44.582;2024-02-14T10:34:40;86152.97;;;17.72;28.64
80682;BME280;70045;40.200;44.582;2024-02-14T10:37:09;86155.78;;;17.44;28.72
80682;BME280;70045;40.200;44.582;2024-02-14T10:39:39;86159.31;;;17.65;28.87
80682;BME280;70045;40.200;44.582;2024-02-14T10:42:06;86162.25;;;17.58;29.23
80682;BME280;70045;40.200;44.582;2024-02-14T10:44:31;86145.78;;;17.58;28.47
80682;BME280;70045;40.200;44.582;2024-02-14T10:46:59;86151.88;;;17.64;28.02
80682;BME280;70045;40.200;44.582;2024-02-14T10:49:27;86132.78;;;17.39;28.58
80682;BME280;70045;40.200;44.582;2024-02-14T10:51:58;86148.97;;;17.62;27.49
80682;BME280;70045;40.200;44.582;2024-02-14T10:54:24;86155.03;;;17.68;28.95
80682;BME280;70045;40.200;44.582;2024-02-14T10:56:50;86139.75;;;17.66;28.31
80682;BME280;70045;40.200;44.582;2024-02-14T10:59:20;86132.28;;;17.74;28.20
80682;BME280;70045;40.200;44.582;2024-02-14T11:01:47;86138.38;;;17.56;28.95
80682;BME280;70045;40.200;44.582;2024-02-14T11:04:16;86138.28;;;17.50;28.33
80682;BME280;70045;40.200;44.582;2024-02-14T11:06:52;86141.22;;;17.43;28.52
80682;BME280;70045;40.200;44.582;2024-02-14T11:09:18;86145.56;;;17.22;29.02
80682;BME280;70045;40.200;44.582;2024-02-14T11:11:44;86139.03;;;17.18;28.77
80682;BME280;70045;40.200;44.582;2024-02-14T11:14:10;86141.38;;;17.16;29.40
80682;BME280;70045;40.200;44.582;2024-02-14T11:16:39;86138.78;;;17.16;29.21
80682;BME280;70045;40.200;44.582;2024-02-14T11:19:13;86122.53;;;17.02;29.38
80682;BME280;70045;40.200;44.582;2024-02-14T11:21:46;86129.16;;;16.79;29.39
80682;BME280;70045;40.200;44.582;2024-02-14T11:24:12;86127.59;;;16.72;29.68
80682;BME280;70045;40.200;44.582;2024-02-14T11:26:51;86126.78;;;16.90;29.23
80682;BME280;70045;40.200;44.582;2024-02-14T11:29:19;86127.22;;;16.98;29.56
80682;BME280;70045;40.200;44.582;2024-02-14T11:31:45;86125.41;;;16.71;29.90
80682;BME280;70045;40.200;44.582;2024-02-14T11:34:16;86096.22;;;16.63;29.65
80682;BME280;70045;40.200;44.582;2024-02-14T11:36:42;86104.91;;;16.69;29.09
80682;BME280;70045;40.200;44.582;2024-02-14T11:39:12;86103.16;;;16.75;29.47
80682;BME280;70045;40.200;44.582;2024-02-14T11:41:39;86114.94;;;17.04;29.66
80682;BME280;70045;40.200;44.582;2024-02-14T11:44:05;86107.38;;;17.06;29.65
80682;BME280;70045;40.200;44.582;2024-02-14T11:46:35;86121.56;;;17.24;29.01
80682;BME280;70045;40.200;44.582;2024-02-14T11:49:03;86099.13;;;17.23;29.28
80682;BME280;70045;40.200;44.582;2024-02-14T11:51:33;86104.22;;;17.26;28.66
80682;BME280;70045;40.200;44.582;2024-02-14T11:54:00;86090.78;;;17.09;29.34
80682;BME280;70045;40.200;44.582;2024-02-14T11:56:26;86101.47;;;17.21;29.85
80682;BME280;70045;40.200;44.582;2024-02-14T11:58:52;86100.53;;;17.33;29.15
80682;BME280;70045;40.200;44.582;2024-02-14T12:01:18;86101.69;;;17.32;28.94
80682;BME280;70045;40.200;44.582;2024-02-14T12:03:47;86107.81;;;17.29;29.13
80682;BME280;70045;40.200;44.582;2024-02-14T12:06:12;86104.72;;;17.40;29.41
80682;BME280;70045;40.200;44.582;2024-02-14T12:08:39;86101.19;;;17.43;29.56
80682;BME280;70045;40.200;44.582;2024-02-14T12:11:09;86103.94;;;17.24;29.41
80682;BME280;70045;40.200;44.582;2024-02-14T12:13:35;86106.38;;;17.28;29.81
80682;BME280;70045;40.200;44.582;2024-02-14T12:16:06;86101.88;;;17.28;29.57
80682;BME280;70045;40.200;44.582;2024-02-14T12:18:31;86091.19;;;17.17;29.73
80682;BME280;70045;40.200;44.582;2024-02-14T12:21:04;86096.13;;;16.91;29.72
80682;BME280;70045;40.200;44.582;2024-02-14T12:23:30;86101.97;;;16.86;29.90
80682;BME280;70045;40.200;44.582;2024-02-14T12:26:01;86086.75;;;16.66;29.74
80682;BME280;70045;40.200;44.582;2024-02-14T12:28:31;86103.00;;;16.70;30.08
80682;BME280;70045;40.200;44.582;2024-02-14T12:30:57;86094.63;;;16.56;30.11
80682;BME280;70045;40.200;44.582;2024-02-14T12:33:26;86104.13;;;16.45;30.57
80682;BME280;70045;40.200;44.582;2024-02-14T12:35:54;86098.91;;;16.45;30.49
80682;BME280;70045;40.200;44.582;2024-02-14T12:38:20;86096.34;;;16.17;30.65
80682;BME280;70045;40.200;44.582;2024-02-14T12:40:49;86092.91;;;15.74;31.29
80682;BME280;70045;40.200;44.582;2024-02-14T12:43:15;86097.28;;;15.68;31.50
80682;BME280;70045;40.200;44.582;2024-02-14T12:45:42;86092.66;;;15.62;31.58
80682;BME280;70045;40.200;44.582;2024-02-14T12:48:08;86100.78;;;15.65;31.70
80682;BME280;70045;40.200;44.582;2024-02-14T12:50:35;86097.88;;;15.62;31.81
80682;BME280;70045;40.200;44.582;2024-02-14T12:53:05;86093.78;;;15.61;31.72